| time (UTC) | temp F | wind direction | speed knots | gust knots | rain 1hr in | rain 24hr in | rain mn in | humidity % | barometer mb |
| 20260507051953 | 79 | 57 | 0.0 | 0.9 | 0.00 | 0.00 | 0.00 | 80 | 1010.7 |
| 20260507050953 | 79 | 353 | 0.0 | 1.7 | 0.00 | 0.00 | 0.00 | 79 | 1010.7 |
| 20260507045954 | 79 | 306 | 0.0 | 1.7 | 0.00 | 0.00 | 0.00 | 79 | 1010.8 |
| 20260507044954 | 80 | 307 | 0.0 | 1.7 | 0.00 | 0.00 | 0.00 | 79 | 1010.9 |
| 20260507043953 | 80 | 52 | 0.0 | 1.7 | 0.00 | 0.00 | 0.00 | 78 | 1010.9 |
| 20260507042954 | 81 | 105 | 0.0 | 1.7 | 0.00 | 0.00 | 0.00 | 77 | 1010.9 |
| 20260507041954 | 81 | 351 | 1.7 | 2.6 | 0.00 | 0.00 | 0.00 | 76 | 1011.0 |
| 20260507040954 | 81 | 319 | 0.0 | 2.6 | 0.00 | 0.00 | 0.00 | 75 | 1011.1 |
| 20260507035954 | 81 | 317 | 1.7 | 2.6 | 0.00 | 0.00 | 0.00 | 74 | 1010.9 |
| 20260507034958 | 81 | 344 | 0.9 | 1.7 | 0.00 | 0.00 | 0.00 | 77 | 1010.8 |
| 20260507033953 | 81 | 321 | 0.0 | 1.7 | 0.00 | 0.00 | 0.00 | 77 | 1011.0 |
| 20260507032958 | 82 | 31 | 0.0 | 1.7 | 0.00 | 0.00 | 0.00 | 78 | 1010.9 |
| 20260507031954 | 82 | 43 | 1.7 | 1.7 | 0.00 | 0.00 | 0.00 | 80 | 1011.0 |
| 20260507024953 | 82 | 305 | 2.6 | 4.3 | 0.00 | 0.00 | 0.00 | 81 | 1010.7 |
| 20260507023959 | 82 | 238 | 0.0 | 1.7 | 0.00 | 0.00 | 0.00 | 80 | 1010.6 |
| 20260507022954 | 82 | 37 | 0.0 | 1.7 | 0.00 | 0.00 | 0.00 | 80 | 1010.7 |
| 20260507021954 | 82 | 221 | 0.0 | 1.7 | 0.00 | 0.00 | 0.00 | 80 | 1010.3 |
| 20260507020954 | 82 | 135 | 0.0 | 1.7 | 0.00 | 0.00 | 0.00 | 80 | 1010.2 |
| 20260507014954 | 83 | 262 | 0.9 | 1.7 | 0.00 | 0.00 | 0.00 | 79 | 1009.9 |
| 20260507011954 | 84 | 150 | 0.0 | 4.3 | 0.00 | 0.00 | 0.00 | 77 | 1009.8 |
| 20260507005957 | 85 | 108 | 0.0 | 5.2 | 0.00 | 0.00 | 0.00 | 76 | 1009.3 |
| 20260507003954 | 86 | 262 | 0.9 | 4.3 | 0.00 | 0.00 | 0.00 | 71 | 1009.3 |
| 20260507002954 | 87 | 246 | 2.6 | 5.2 | 0.00 | 0.00 | 0.00 | 68 | 1009.0 |
| 20260507001954 | 88 | 142 | 4.3 | 5.2 | 0.00 | 0.00 | 0.00 | 66 | 1008.8 |
| 20260507000954 | 89 | 116 | 1.7 | 3.5 | 0.00 | 0.00 | 0.00 | 65 | 1008.8 |
| 20260506235953 | 89 | 193 | 1.7 | 4.3 | 0.00 | 0.00 | 0.00 | 64 | 1008.6 |
| 20260506234954 | 89 | 247 | 1.7 | 5.2 | 0.00 | 0.00 | 0.00 | 62 | 1008.6 |
| 20260506232954 | 90 | 224 | 1.7 | 2.6 | 0.00 | 0.00 | 0.00 | 55 | 1008.4 |
| 20260506231958 | 90 | 297 | 1.7 | 5.2 | 0.00 | 0.00 | 0.00 | 58 | 1008.5 |
| 20260506230954 | 90 | 209 | 1.7 | 5.2 | 0.00 | 0.00 | 0.00 | 63 | 1008.4 |
| 20260506225954 | 89 | 237 | 1.7 | 5.2 | 0.00 | 0.00 | 0.00 | 65 | 1008.7 |
| 20260506224954 | 90 | 325 | 0.0 | 5.2 | 0.00 | 0.00 | 0.00 | 61 | 1008.5 |
| 20260506223953 | 91 | 263 | 2.6 | 5.2 | 0.00 | 0.00 | 0.00 | 62 | 1008.5 |
| 20260506222953 | 91 | 296 | 1.7 | 7.0 | 0.00 | 0.00 | 0.00 | 61 | 1008.3 |
| 20260506221953 | 91 | 236 | 4.3 | 7.0 | 0.00 | 0.00 | 0.00 | 61 | 1008.2 |
| 20260506220957 | 90 | 208 | 0.9 | 7.8 | 0.00 | 0.00 | 0.00 | 58 | 1008.4 |
| 20260506213954 | 91 | 262 | 1.7 | 7.8 | 0.00 | 0.00 | 0.00 | 60 | 1008.6 |
| 20260506210954 | 92 | 265 | 1.7 | 6.1 | 0.00 | 0.00 | 0.00 | 58 | 1008.8 |
| 20260506205958 | 90 | 151 | 0.0 | 7.0 | 0.00 | 0.00 | 0.00 | 60 | 1009.0 |
| 20260506204954 | 90 | 241 | 1.7 | 7.0 | 0.00 | 0.00 | 0.00 | 61 | 1009.0 |
| 20260506203954 | 90 | 277 | 1.7 | 7.8 | 0.00 | 0.00 | 0.00 | 61 | 1009.2 |
| 20260506195957 | 90 | 164 | 3.5 | 9.6 | 0.00 | 0.00 | 0.00 | 65 | 1009.7 |
| 20260506195002 | 91 | 137 | 1.7 | 7.0 | 0.00 | 0.00 | 0.00 | 62 | 1009.7 |
| 20260506193953 | 90 | 240 | 3.5 | 8.7 | 0.00 | 0.00 | 0.00 | 62 | 1009.8 |
| 20260506192954 | 90 | 253 | 5.2 | 6.1 | 0.00 | 0.00 | 0.00 | 64 | 1010.0 |
| 20260506191958 | 90 | 252 | 2.6 | 9.6 | 0.00 | 0.00 | 0.00 | 60 | 1010.2 |
| 20260506190954 | 91 | 259 | 3.5 | 7.8 | 0.00 | 0.00 | 0.00 | 60 | 1010.3 |
| 20260506185954 | 90 | 232 | 4.3 | 5.2 | 0.00 | 0.00 | 0.00 | 63 | 1010.3 |
| 20260506184958 | 91 | 122 | 0.0 | 4.3 | 0.00 | 0.00 | 0.00 | 63 | 1010.5 |
| 20260506181954 | 90 | 145 | 0.9 | 9.6 | 0.00 | 0.00 | 0.00 | 66 | 1010.6 |
| 20260506180954 | 89 | 358 | 1.7 | 9.6 | 0.00 | 0.00 | 0.00 | 69 | 1010.7 |
| 20260506175954 | 89 | 268 | 1.7 | 9.6 | 0.00 | 0.00 | 0.00 | 67 | 1011.0 |
| 20260506174953 | 89 | 258 | 2.6 | 7.0 | 0.00 | 0.00 | 0.00 | 64 | 1010.8 |
| 20260506173957 | 88 | 120 | 0.0 | 7.8 | 0.00 | 0.00 | 0.00 | 66 | 1010.9 |
| 20260506172954 | 86 | 349 | 0.0 | 7.8 | 0.00 | 0.00 | 0.00 | 68 | 1011.1 |
| 20260506171954 | 89 | 158 | 4.3 | 5.2 | 0.00 | 0.00 | 0.00 | 64 | 1011.1 |
| 20260506170953 | 88 | 181 | 0.9 | 6.1 | 0.00 | 0.00 | 0.00 | 64 | 1011.2 |
| 20260506165953 | 87 | 131 | 0.0 | 6.1 | 0.00 | 0.00 | 0.00 | 66 | 1011.3 |
| 20260506163954 | 87 | 166 | 2.6 | 5.2 | 0.00 | 0.00 | 0.00 | 66 | 1011.3 |
| 20260506161953 | 86 | 179 | 5.2 | 6.1 | 0.00 | 0.00 | 0.00 | 69 | 1011.6 |
| 20260506160958 | 85 | 208 | 0.0 | 6.1 | 0.00 | 0.00 | 0.00 | 70 | 1011.6 |
| 20260506155958 | 85 | 175 | 4.3 | 7.0 | 0.00 | 0.00 | 0.00 | 69 | 1011.5 |
| 20260506154953 | 85 | 84 | 1.7 | 5.2 | 0.00 | 0.00 | 0.00 | 70 | 1011.4 |
| 20260506153953 | 85 | 240 | 4.3 | 7.0 | 0.00 | 0.00 | 0.00 | 72 | 1011.5 |
| 20260506152953 | 84 | 243 | 0.9 | 6.1 | 0.00 | 0.00 | 0.00 | 71 | 1011.6 |
| 20260506150953 | 83 | 73 | 1.7 | 5.2 | 0.00 | 0.00 | 0.00 | 76 | 1011.1 |
| 20260506145954 | 83 | 170 | 0.9 | 4.3 | 0.00 | 0.00 | 0.00 | 77 | 1011.2 |
| 20260506143954 | 83 | 130 | 0.0 | 4.3 | 0.00 | 0.00 | 0.00 | 78 | 1010.9 |
| 20260506141953 | 83 | 198 | 0.9 | 2.6 | 0.00 | 0.00 | 0.00 | 79 | 1010.8 |
| 20260506134958 | 82 | 77 | 1.7 | 2.6 | 0.00 | 0.00 | 0.00 | 79 | 1010.3 |
| 20260506132953 | 78 | 297 | 0.0 | 0.9 | 0.00 | 0.00 | 0.00 | 86 | 1010.2 |
| 20260506130954 | 76 | 315 | 0.0 | 1.7 | 0.00 | 0.00 | 0.00 | 89 | 1010.0 |
| 20260506125954 | 74 | 245 | 0.0 | 0.9 | 0.00 | 0.00 | 0.00 | 93 | 1010.0 |
| 20260506121958 | 73 | 242 | 0.0 | 0.9 | 0.00 | 0.00 | 0.00 | 94 | 1009.5 |
| 20260506120954 | 73 | 247 | 0.0 | 1.7 | 0.00 | 0.00 | 0.00 | 94 | 1009.8 |
| 20260506115953 | 73 | 290 | 0.0 | 1.7 | 0.00 | 0.00 | 0.00 | 93 | 1009.7 |
| 20260506114954 | 73 | 307 | 0.0 | 1.7 | 0.00 | 0.00 | 0.00 | 93 | 1009.7 |
| 20260506113954 | 73 | 333 | 0.0 | 0.9 | 0.00 | 0.00 | 0.00 | 92 | 1009.5 |
| 20260506112953 | 74 | 224 | 0.0 | 1.7 | 0.00 | 0.00 | 0.00 | 92 | 1009.7 |
| 20260506111954 | 74 | 235 | 0.0 | 1.7 | 0.00 | 0.00 | 0.00 | 92 | 1009.5 |
| 20260506105954 | 74 | 108 | 0.9 | 1.7 | 0.00 | 0.00 | 0.00 | 91 | 1009.4 |
| 20260506104953 | 75 | 269 | 0.0 | 0.9 | 0.00 | 0.00 | 0.00 | 91 | 1009.2 |
| 20260506102954 | 75 | 311 | 0.0 | 1.7 | 0.00 | 0.00 | 0.00 | 91 | 1009.5 |
| 20260506100954 | 76 | 249 | 0.0 | 1.7 | 0.00 | 0.00 | 0.00 | 90 | 1009.7 |
| 20260506094954 | 76 | 301 | 0.9 | 0.9 | 0.00 | 0.00 | 0.00 | 90 | 1009.7 |
| 20260506093953 | 76 | 353 | 0.0 | 1.7 | 0.00 | 0.00 | 0.00 | 89 | 1009.5 |
| 20260506092954 | 76 | 238 | 0.0 | 0.9 | 0.00 | 0.00 | 0.00 | 88 | 1009.5 |
| 20260506091953 | 77 | 337 | 0.0 | 1.7 | 0.00 | 0.00 | 0.00 | 88 | 1009.8 |
| 20260506085954 | 78 | 312 | 0.0 | 1.7 | 0.00 | 0.00 | 0.00 | 88 | 1010.0 |
| 20260506084954 | 78 | 311 | 0.9 | 2.6 | 0.00 | 0.00 | 0.00 | 88 | 1009.9 |
| 20260506083958 | 78 | 332 | 1.7 | 2.6 | 0.00 | 0.00 | 0.00 | 87 | 1010.1 |
| 20260506082954 | 78 | 340 | 1.7 | 2.6 | 0.00 | 0.00 | 0.00 | 87 | 1010.2 |
| 20260506081953 | 78 | 322 | 0.0 | 2.6 | 0.00 | 0.00 | 0.00 | 87 | 1010.2 |
| 20260506072953 | 77 | 36 | 0.0 | 1.7 | 0.00 | 0.00 | 0.00 | 88 | 1010.1 |
| 20260506071953 | 77 | 60 | 0.0 | 0.9 | 0.00 | 0.00 | 0.00 | 88 | 1010.3 |
| 20260506070954 | 78 | 335 | 0.0 | 1.7 | 0.00 | 0.00 | 0.00 | 88 | 1010.2 |
| 20260506060954 | 78 | 343 | 0.0 | 1.7 | 0.00 | 0.00 | 0.00 | 87 | 1010.3 |